sensor_id;sensor_type;location;lat;lon;timestamp;temperature;humidity
9371;DHT22;4725;48.384;8.984;2023-04-03T00:04:28;2.60;99.90
9371;DHT22;4725;48.384;8.984;2023-04-03T00:06:56;2.60;99.90
9371;DHT22;4725;48.384;8.984;2023-04-03T00:09:23;2.60;99.90
9371;DHT22;4725;48.384;8.984;2023-04-03T00:11:50;2.50;99.90
9371;DHT22;4725;48.384;8.984;2023-04-03T00:14:17;2.60;99.90
9371;DHT22;4725;48.384;8.984;2023-04-03T00:16:44;2.60;99.90
9371;DHT22;4725;48.384;8.984;2023-04-03T00:19:11;2.60;99.90
9371;DHT22;4725;48.384;8.984;2023-04-03T00:21:38;2.60;99.90
9371;DHT22;4725;48.384;8.984;2023-04-03T00:24:07;2.60;99.90
9371;DHT22;4725;48.384;8.984;2023-04-03T00:26:34;2.60;99.90
9371;DHT22;4725;48.384;8.984;2023-04-03T00:29:00;2.60;99.90
9371;DHT22;4725;48.384;8.984;2023-04-03T00:31:27;2.60;99.90
9371;DHT22;4725;48.384;8.984;2023-04-03T00:33:54;2.60;99.90
9371;DHT22;4725;48.384;8.984;2023-04-03T00:36:21;2.60;99.90
9371;DHT22;4725;48.384;8.984;2023-04-03T00:38:48;2.60;99.90
9371;DHT22;4725;48.384;8.984;2023-04-03T00:41:16;2.50;99.90
9371;DHT22;4725;48.384;8.984;2023-04-03T00:43:43;2.50;99.90
9371;DHT22;4725;48.384;8.984;2023-04-03T00:46:10;2.40;99.90
9371;DHT22;4725;48.384;8.984;2023-04-03T00:48:39;2.40;99.90
9371;DHT22;4725;48.384;8.984;2023-04-03T00:51:10;2.50;99.90
9371;DHT22;4725;48.384;8.984;2023-04-03T00:53:41;2.40;99.90
9371;DHT22;4725;48.384;8.984;2023-04-03T00:56:10;2.40;99.90
9371;DHT22;4725;48.384;8.984;2023-04-03T00:58:42;2.40;99.90
9371;DHT22;4725;48.384;8.984;2023-04-03T01:01:16;2.40;99.90
9371;DHT22;4725;48.384;8.984;2023-04-03T01:03:45;2.40;99.90
9371;DHT22;4725;48.384;8.984;2023-04-03T01:06:13;2.40;99.90
9371;DHT22;4725;48.384;8.984;2023-04-03T01:08:42;2.40;99.90
9371;DHT22;4725;48.384;8.984;2023-04-03T01:13:36;2.40;99.90
9371;DHT22;4725;48.384;8.984;2023-04-03T01:16:05;2.40;99.90
9371;DHT22;4725;48.384;8.984;2023-04-03T01:18:34;2.30;99.90
9371;DHT22;4725;48.384;8.984;2023-04-03T01:24:15;2.40;99.90
9371;DHT22;4725;48.384;8.984;2023-04-03T01:26:43;2.40;99.90
9371;DHT22;4725;48.384;8.984;2023-04-03T01:29:11;2.40;99.90
9371;DHT22;4725;48.384;8.984;2023-04-03T01:31:49;2.40;99.90
9371;DHT22;4725;48.384;8.984;2023-04-03T01:34:16;2.40;99.90
9371;DHT22;4725;48.384;8.984;2023-04-03T01:39:10;2.40;99.90
9371;DHT22;4725;48.384;8.984;2023-04-03T01:41:38;2.30;99.90
9371;DHT22;4725;48.384;8.984;2023-04-03T01:46:32;2.30;99.90
9371;DHT22;4725;48.384;8.984;2023-04-03T01:49:01;2.30;99.90
9371;DHT22;4725;48.384;8.984;2023-04-03T01:51:27;2.30;99.90
9371;DHT22;4725;48.384;8.984;2023-04-03T01:53:54;2.20;99.90
9371;DHT22;4725;48.384;8.984;2023-04-03T01:56:21;2.20;99.90
9371;DHT22;4725;48.384;8.984;2023-04-03T01:58:48;2.10;99.90
9371;DHT22;4725;48.384;8.984;2023-04-03T02:01:15;2.20;99.90
9371;DHT22;4725;48.384;8.984;2023-04-03T02:03:42;2.30;99.90
9371;DHT22;4725;48.384;8.984;2023-04-03T02:06:10;2.30;99.90
9371;DHT22;4725;48.384;8.984;2023-04-03T02:08:37;2.20;99.90
9371;DHT22;4725;48.384;8.984;2023-04-03T02:11:04;2.10;99.90
9371;DHT22;4725;48.384;8.984;2023-04-03T02:13:31;2.20;99.90
9371;DHT22;4725;48.384;8.984;2023-04-03T02:15:58;2.10;99.90
9371;DHT22;4725;48.384;8.984;2023-04-03T02:20:52;2.10;99.90
9371;DHT22;4725;48.384;8.984;2023-04-03T02:23:21;2.10;99.90
9371;DHT22;4725;48.384;8.984;2023-04-03T02:25:47;2.10;99.90
9371;DHT22;4725;48.384;8.984;2023-04-03T02:28:15;2.10;99.90
9371;DHT22;4725;48.384;8.984;2023-04-03T02:30:42;0.80;99.90
9371;DHT22;4725;48.384;8.984;2023-04-03T02:40:32;2.00;99.90
9371;DHT22;4725;48.384;8.984;2023-04-03T02:45:26;1.90;99.90
9371;DHT22;4725;48.384;8.984;2023-04-03T02:47:53;2.00;99.90
9371;DHT22;4725;48.384;8.984;2023-04-03T02:50:20;2.00;99.90
9371;DHT22;4725;48.384;8.984;2023-04-03T02:52:46;2.00;99.90
9371;DHT22;4725;48.384;8.984;2023-04-03T02:55:14;2.00;99.90
9371;DHT22;4725;48.384;8.984;2023-04-03T02:57:43;1.90;99.90
9371;DHT22;4725;48.384;8.984;2023-04-03T03:00:10;1.90;99.90
9371;DHT22;4725;48.384;8.984;2023-04-03T03:02:37;2.00;99.90
9371;DHT22;4725;48.384;8.984;2023-04-03T03:05:04;1.90;99.90
9371;DHT22;4725;48.384;8.984;2023-04-03T03:09:59;1.90;99.90
9371;DHT22;4725;48.384;8.984;2023-04-03T03:12:25;1.90;99.90
9371;DHT22;4725;48.384;8.984;2023-04-03T03:14:54;1.90;99.90
9371;DHT22;4725;48.384;8.984;2023-04-03T03:17:21;2.10;99.90
9371;DHT22;4725;48.384;8.984;2023-04-03T03:19:47;2.00;99.90
9371;DHT22;4725;48.384;8.984;2023-04-03T03:22:14;1.90;99.90
9371;DHT22;4725;48.384;8.984;2023-04-03T03:24:41;2.00;99.90
9371;DHT22;4725;48.384;8.984;2023-04-03T03:27:08;1.90;99.90
9371;DHT22;4725;48.384;8.984;2023-04-03T03:29:35;1.90;99.90
9371;DHT22;4725;48.384;8.984;2023-04-03T03:32:03;1.80;99.90
9371;DHT22;4725;48.384;8.984;2023-04-03T03:34:31;1.80;99.90
9371;DHT22;4725;48.384;8.984;2023-04-03T03:36:58;1.80;99.90
9371;DHT22;4725;48.384;8.984;2023-04-03T03:39:24;1.80;99.90
9371;DHT22;4725;48.384;8.984;2023-04-03T03:41:51;1.90;99.90
9371;DHT22;4725;48.384;8.984;2023-04-03T03:44:19;1.80;99.90
9371;DHT22;4725;48.384;8.984;2023-04-03T03:49:14;1.80;99.90
9371;DHT22;4725;48.384;8.984;2023-04-03T03:51:41;1.70;99.90
9371;DHT22;4725;48.384;8.984;2023-04-03T03:56:35;1.70;99.90
9371;DHT22;4725;48.384;8.984;2023-04-03T03:59:02;1.70;99.90
9371;DHT22;4725;48.384;8.984;2023-04-03T04:01:29;1.60;99.90
9371;DHT22;4725;48.384;8.984;2023-04-03T04:03:56;1.70;99.90
9371;DHT22;4725;48.384;8.984;2023-04-03T04:06:24;1.60;99.90
9371;DHT22;4725;48.384;8.984;2023-04-03T04:08:51;1.70;99.90
9371;DHT22;4725;48.384;8.984;2023-04-03T04:11:18;1.70;99.90
9371;DHT22;4725;48.384;8.984;2023-04-03T04:13:46;1.60;99.90
9371;DHT22;4725;48.384;8.984;2023-04-03T04:16:12;1.60;99.90
9371;DHT22;4725;48.384;8.984;2023-04-03T04:18:39;1.60;99.90
9371;DHT22;4725;48.384;8.984;2023-04-03T04:21:06;1.60;99.90
9371;DHT22;4725;48.384;8.984;2023-04-03T04:23:34;1.60;99.90
9371;DHT22;4725;48.384;8.984;2023-04-03T04:26:01;1.60;99.90
9371;DHT22;4725;48.384;8.984;2023-04-03T04:28:28;1.70;99.90
9371;DHT22;4725;48.384;8.984;2023-04-03T04:30:55;1.60;99.90
9371;DHT22;4725;48.384;8.984;2023-04-03T04:33:22;1.50;99.90
9371;DHT22;4725;48.384;8.984;2023-04-03T04:35:49;1.50;99.90
9371;DHT22;4725;48.384;8.984;2023-04-03T04:38:17;1.50;99.90
9371;DHT22;4725;48.384;8.984;2023-04-03T04:40:45;1.50;99.90
9371;DHT22;4725;48.384;8.984;2023-04-03T04:43:13;1.50;99.90
9371;DHT22;4725;48.384;8.984;2023-04-03T04:48:08;1.60;99.90
9371;DHT22;4725;48.384;8.984;2023-04-03T04:50:34;1.60;99.90
9371;DHT22;4725;48.384;8.984;2023-04-03T04:53:01;1.60;99.90
9371;DHT22;4725;48.384;8.984;2023-04-03T04:55:29;1.60;99.90
9371;DHT22;4725;48.384;8.984;2023-04-03T04:57:57;1.60;99.90
9371;DHT22;4725;48.384;8.984;2023-04-03T05:00:24;1.60;99.90
9371;DHT22;4725;48.384;8.984;2023-04-03T05:05:18;1.60;99.90
9371;DHT22;4725;48.384;8.984;2023-04-03T05:10:12;1.50;99.90
9371;DHT22;4725;48.384;8.984;2023-04-03T05:12:39;1.60;99.90
9371;DHT22;4725;48.384;8.984;2023-04-03T05:15:09;1.70;99.90
9371;DHT22;4725;48.384;8.984;2023-04-03T05:17:36;1.70;99.90
9371;DHT22;4725;48.384;8.984;2023-04-03T05:20:03;1.70;99.90
9371;DHT22;4725;48.384;8.984;2023-04-03T05:22:30;1.70;99.90
9371;DHT22;4725;48.384;8.984;2023-04-03T05:24:57;1.80;99.90
9371;DHT22;4725;48.384;8.984;2023-04-03T05:27:24;1.80;99.90
9371;DHT22;4725;48.384;8.984;2023-04-03T05:29:53;1.70;99.90
9371;DHT22;4725;48.384;8.984;2023-04-03T05:32:22;1.70;99.90
9371;DHT22;4725;48.384;8.984;2023-04-03T05:34:49;1.70;99.90
9371;DHT22;4725;48.384;8.984;2023-04-03T05:37:16;1.80;99.90
9371;DHT22;4725;48.384;8.984;2023-04-03T05:39:43;1.90;99.90
9371;DHT22;4725;48.384;8.984;2023-04-03T05:42:10;1.80;99.90
9371;DHT22;4725;48.384;8.984;2023-04-03T05:44:38;1.80;99.90
9371;DHT22;4725;48.384;8.984;2023-04-03T05:49:33;1.80;99.90
9371;DHT22;4725;48.384;8.984;2023-04-03T05:52:00;1.80;99.90
9371;DHT22;4725;48.384;8.984;2023-04-03T05:54:28;1.80;99.90
9371;DHT22;4725;48.384;8.984;2023-04-03T05:56:55;1.90;99.90
9371;DHT22;4725;48.384;8.984;2023-04-03T05:59:22;1.80;99.90
9371;DHT22;4725;48.384;8.984;2023-04-03T06:01:49;1.90;99.90
9371;DHT22;4725;48.384;8.984;2023-04-03T06:04:16;1.90;99.90
9371;DHT22;4725;48.384;8.984;2023-04-03T06:06:50;2.10;99.90
9371;DHT22;4725;48.384;8.984;2023-04-03T06:09:19;2.00;99.90
9371;DHT22;4725;48.384;8.984;2023-04-03T06:11:46;2.00;99.90
9371;DHT22;4725;48.384;8.984;2023-04-03T06:14:13;2.00;99.90
9371;DHT22;4725;48.384;8.984;2023-04-03T06:16:40;2.00;99.90
9371;DHT22;4725;48.384;8.984;2023-04-03T06:24:03;2.20;99.90
9371;DHT22;4725;48.384;8.984;2023-04-03T06:26:31;2.20;99.90
9371;DHT22;4725;48.384;8.984;2023-04-03T06:31:26;2.30;99.90
9371;DHT22;4725;48.384;8.984;2023-04-03T06:33:52;2.30;99.90
9371;DHT22;4725;48.384;8.984;2023-04-03T06:36:20;2.60;99.90
9371;DHT22;4725;48.384;8.984;2023-04-03T06:38:47;2.60;99.90
9371;DHT22;4725;48.384;8.984;2023-04-03T06:41:16;2.80;99.90
9371;DHT22;4725;48.384;8.984;2023-04-03T06:43:43;2.80;99.90
9371;DHT22;4725;48.384;8.984;2023-04-03T06:46:13;2.70;99.90
9371;DHT22;4725;48.384;8.984;2023-04-03T06:48:42;2.80;99.90
9371;DHT22;4725;48.384;8.984;2023-04-03T06:51:15;2.90;99.90
9371;DHT22;4725;48.384;8.984;2023-04-03T06:53:43;3.00;99.90
9371;DHT22;4725;48.384;8.984;2023-04-03T06:56:11;3.20;99.90
9371;DHT22;4725;48.384;8.984;2023-04-03T06:58:39;3.10;99.90
9371;DHT22;4725;48.384;8.984;2023-04-03T07:01:07;3.10;99.90
9371;DHT22;4725;48.384;8.984;2023-04-03T07:03:35;3.40;99.90
9371;DHT22;4725;48.384;8.984;2023-04-03T07:06:02;3.40;99.90
9371;DHT22;4725;48.384;8.984;2023-04-03T07:10:56;3.70;99.90
9371;DHT22;4725;48.384;8.984;2023-04-03T07:13:23;3.70;99.90
9371;DHT22;4725;48.384;8.984;2023-04-03T07:15:51;3.80;99.90
9371;DHT22;4725;48.384;8.984;2023-04-03T07:18:18;3.90;99.90
9371;DHT22;4725;48.384;8.984;2023-04-03T07:20:46;4.00;99.90
9371;DHT22;4725;48.384;8.984;2023-04-03T07:23:13;4.10;99.90
9371;DHT22;4725;48.384;8.984;2023-04-03T07:25:43;4.10;99.90
9371;DHT22;4725;48.384;8.984;2023-04-03T07:28:10;4.10;99.90
9371;DHT22;4725;48.384;8.984;2023-04-03T07:30:44;3.90;99.90
9371;DHT22;4725;48.384;8.984;2023-04-03T07:33:13;3.80;99.90
9371;DHT22;4725;48.384;8.984;2023-04-03T07:35:41;3.90;99.90
9371;DHT22;4725;48.384;8.984;2023-04-03T07:38:09;3.90;99.90
9371;DHT22;4725;48.384;8.984;2023-04-03T07:40:36;3.90;99.90
9371;DHT22;4725;48.384;8.984;2023-04-03T07:43:03;4.20;99.90
9371;DHT22;4725;48.384;8.984;2023-04-03T07:45:31;4.40;99.90
9371;DHT22;4725;48.384;8.984;2023-04-03T07:47:58;4.50;99.90
9371;DHT22;4725;48.384;8.984;2023-04-03T07:50:26;4.60;99.90
9371;DHT22;4725;48.384;8.984;2023-04-03T07:52:55;4.60;99.90
9371;DHT22;4725;48.384;8.984;2023-04-03T07:55:23;4.50;99.90
9371;DHT22;4725;48.384;8.984;2023-04-03T07:57:50;4.60;99.90
9371;DHT22;4725;48.384;8.984;2023-04-03T08:00:17;4.70;99.90
9371;DHT22;4725;48.384;8.984;2023-04-03T08:02:45;4.70;99.90
9371;DHT22;4725;48.384;8.984;2023-04-03T08:05:15;4.70;99.90
9371;DHT22;4725;48.384;8.984;2023-04-03T08:07:44;4.80;99.90
9371;DHT22;4725;48.384;8.984;2023-04-03T08:10:12;4.90;99.90
9371;DHT22;4725;48.384;8.984;2023-04-03T08:12:39;4.90;99.90
9371;DHT22;4725;48.384;8.984;2023-04-03T08:15:07;4.80;99.90
9371;DHT22;4725;48.384;8.984;2023-04-03T08:17:35;5.10;99.90
9371;DHT22;4725;48.384;8.984;2023-04-03T08:20:03;5.10;99.90
9371;DHT22;4725;48.384;8.984;2023-04-03T08:22:30;5.10;99.90
9371;DHT22;4725;48.384;8.984;2023-04-03T08:24:58;5.30;99.90
9371;DHT22;4725;48.384;8.984;2023-04-03T08:27:26;5.10;99.90
9371;DHT22;4725;48.384;8.984;2023-04-03T08:29:54;5.00;99.90
9371;DHT22;4725;48.384;8.984;2023-04-03T08:32:20;4.90;99.90
9371;DHT22;4725;48.384;8.984;2023-04-03T08:34:48;4.80;99.90
9371;DHT22;4725;48.384;8.984;2023-04-03T08:37:14;5.20;99.90
9371;DHT22;4725;48.384;8.984;2023-04-03T08:39:42;5.30;99.90
9371;DHT22;4725;48.384;8.984;2023-04-03T08:42:18;5.20;99.90
9371;DHT22;4725;48.384;8.984;2023-04-03T08:44:50;5.20;99.90
9371;DHT22;4725;48.384;8.984;2023-04-03T08:47:25;5.10;99.90
9371;DHT22;4725;48.384;8.984;2023-04-03T08:49:56;5.10;99.90
9371;DHT22;4725;48.384;8.984;2023-04-03T08:52:28;5.20;99.90
9371;DHT22;4725;48.384;8.984;2023-04-03T08:55:00;5.10;99.90
9371;DHT22;4725;48.384;8.984;2023-04-03T08:57:31;5.20;99.90
9371;DHT22;4725;48.384;8.984;2023-04-03T09:00:03;5.40;99.90
9371;DHT22;4725;48.384;8.984;2023-04-03T09:02:33;5.40;99.90
9371;DHT22;4725;48.384;8.984;2023-04-03T09:05:02;5.60;99.90
9371;DHT22;4725;48.384;8.984;2023-04-03T09:07:35;5.10;99.90
9371;DHT22;4725;48.384;8.984;2023-04-03T09:10:08;5.00;99.90
9371;DHT22;4725;48.384;8.984;2023-04-03T09:12:41;5.00;99.90
9371;DHT22;4725;48.384;8.984;2023-04-03T09:15:16;5.30;99.90
9371;DHT22;4725;48.384;8.984;2023-04-03T09:17:54;5.50;99.90
9371;DHT22;4725;48.384;8.984;2023-04-03T09:20:27;5.50;99.90
9371;DHT22;4725;48.384;8.984;2023-04-03T09:22:57;5.70;99.90
9371;DHT22;4725;48.384;8.984;2023-04-03T09:25:27;5.60;99.90
9371;DHT22;4725;48.384;8.984;2023-04-03T09:27:57;5.60;99.90
9371;DHT22;4725;48.384;8.984;2023-04-03T09:30:26;5.60;99.90
9371;DHT22;4725;48.384;8.984;2023-04-03T09:32:54;5.70;99.90
9371;DHT22;4725;48.384;8.984;2023-04-03T09:35:24;6.00;99.90
9371;DHT22;4725;48.384;8.984;2023-04-03T09:37:52;5.90;99.90
9371;DHT22;4725;48.384;8.984;2023-04-03T09:40:32;5.90;99.90
9371;DHT22;4725;48.384;8.984;2023-04-03T09:43:19;6.00;99.90
9371;DHT22;4725;48.384;8.984;2023-04-03T09:45:47;6.00;99.90
9371;DHT22;4725;48.384;8.984;2023-04-03T09:48:18;6.30;99.90
9371;DHT22;4725;48.384;8.984;2023-04-03T09:50:59;6.30;99.90
9371;DHT22;4725;48.384;8.984;2023-04-03T09:53:38;6.20;99.90
9371;DHT22;4725;48.384;8.984;2023-04-03T09:56:19;6.30;99.90
9371;DHT22;4725;48.384;8.984;2023-04-03T09:58:49;6.40;99.90
9371;DHT22;4725;48.384;8.984;2023-04-03T10:01:23;6.50;99.90
9371;DHT22;4725;48.384;8.984;2023-04-03T10:04:07;6.50;99.90
9371;DHT22;4725;48.384;8.984;2023-04-03T10:06:36;6.50;99.90
9371;DHT22;4725;48.384;8.984;2023-04-03T10:09:14;6.40;99.90
9371;DHT22;4725;48.384;8.984;2023-04-03T10:11:57;6.50;99.90
9371;DHT22;4725;48.384;8.984;2023-04-03T10:14:26;6.40;99.90
9371;DHT22;4725;48.384;8.984;2023-04-03T10:16:59;6.40;99.90
9371;DHT22;4725;48.384;8.984;2023-04-03T10:19:35;6.40;99.90
9371;DHT22;4725;48.384;8.984;2023-04-03T10:22:10;6.20;99.90
9371;DHT22;4725;48.384;8.984;2023-04-03T10:24:47;6.30;99.90
9371;DHT22;4725;48.384;8.984;2023-04-03T10:27:19;6.70;99.90
9371;DHT22;4725;48.384;8.984;2023-04-03T10:29:55;6.80;99.90
9371;DHT22;4725;48.384;8.984;2023-04-03T10:32:40;7.00;99.90
9371;DHT22;4725;48.384;8.984;2023-04-03T10:35:15;6.80;99.90
9371;DHT22;4725;48.384;8.984;2023-04-03T10:37:54;7.10;99.90
9371;DHT22;4725;48.384;8.984;2023-04-03T10:40:30;7.20;99.90
9371;DHT22;4725;48.384;8.984;2023-04-03T10:43:06;7.20;99.90
9371;DHT22;4725;48.384;8.984;2023-04-03T10:45:49;7.30;99.90
9371;DHT22;4725;48.384;8.984;2023-04-03T10:48:26;7.20;99.90
9371;DHT22;4725;48.384;8.984;2023-04-03T10:51:05;7.10;99.90
9371;DHT22;4725;48.384;8.984;2023-04-03T10:53:39;6.80;99.90
9371;DHT22;4725;48.384;8.984;2023-04-03T10:56:15;6.90;99.90
9371;DHT22;4725;48.384;8.984;2023-04-03T10:58:45;6.80;99.90
9371;DHT22;4725;48.384;8.984;2023-04-03T11:01:19;6.60;99.90
9371;DHT22;4725;48.384;8.984;2023-04-03T11:03:49;6.40;99.90
9371;DHT22;4725;48.384;8.984;2023-04-03T11:06:21;6.40;99.90
9371;DHT22;4725;48.384;8.984;2023-04-03T11:08:52;6.30;99.90
9371;DHT22;4725;48.384;8.984;2023-04-03T11:11:25;6.40;99.90
9371;DHT22;4725;48.384;8.984;2023-04-03T11:13:56;6.60;99.90
9371;DHT22;4725;48.384;8.984;2023-04-03T11:16:28;4.20;99.90
9371;DHT22;4725;48.384;8.984;2023-04-03T11:18:58;6.80;99.90
9371;DHT22;4725;48.384;8.984;2023-04-03T11:21:29;6.80;99.90
9371;DHT22;4725;48.384;8.984;2023-04-03T11:23:59;6.80;99.90
9371;DHT22;4725;48.384;8.984;2023-04-03T11:26:29;6.60;99.90
9371;DHT22;4725;48.384;8.984;2023-04-03T11:29:00;6.50;99.90
9371;DHT22;4725;48.384;8.984;2023-04-03T11:31:38;6.50;99.90
9371;DHT22;4725;48.384;8.984;2023-04-03T11:34:19;8.00;99.90
9371;DHT22;4725;48.384;8.984;2023-04-03T11:36:50;6.20;99.90
9371;DHT22;4725;48.384;8.984;2023-04-03T11:39:23;6.10;99.90
9371;DHT22;4725;48.384;8.984;2023-04-03T11:41:51;6.00;99.90
9371;DHT22;4725;48.384;8.984;2023-04-03T11:44:32;6.10;99.90
9371;DHT22;4725;48.384;8.984;2023-04-03T11:47:02;6.60;99.90
9371;DHT22;4725;48.384;8.984;2023-04-03T11:52:58;6.90;99.90
9371;DHT22;4725;48.384;8.984;2023-04-03T11:55:43;7.10;99.90
9371;DHT22;4725;48.384;8.984;2023-04-03T11:58:15;7.00;99.90
9371;DHT22;4725;48.384;8.984;2023-04-03T12:00:54;6.80;99.90
9371;DHT22;4725;48.384;8.984;2023-04-03T12:07:12;6.70;99.90
9371;DHT22;4725;48.384;8.984;2023-04-03T12:10:17;6.50;99.90
9371;DHT22;4725;48.384;8.984;2023-04-03T12:12:56;6.50;99.90
9371;DHT22;4725;48.384;8.984;2023-04-03T12:15:54;6.40;99.90
9371;DHT22;4725;48.384;8.984;2023-04-03T12:18:41;6.30;99.90
9371;DHT22;4725;48.384;8.984;2023-04-03T12:21:09;6.30;99.90
9371;DHT22;4725;48.384;8.984;2023-04-03T12:24:03;6.20;99.90
9371;DHT22;4725;48.384;8.984;2023-04-03T12:26:44;6.00;99.90
9371;DHT22;4725;48.384;8.984;2023-04-03T12:29:17;6.10;99.90
9371;DHT22;4725;48.384;8.984;2023-04-03T12:31:55;4.20;99.90
9371;DHT22;4725;48.384;8.984;2023-04-03T12:34:45;6.60;99.90
9371;DHT22;4725;48.384;8.984;2023-04-03T12:37:36;6.90;99.90
9371;DHT22;4725;48.384;8.984;2023-04-03T12:40:15;6.90;99.90
9371;DHT22;4725;48.384;8.984;2023-04-03T12:42:58;7.30;99.90
9371;DHT22;4725;48.384;8.984;2023-04-03T12:45:40;7.80;99.90
9371;DHT22;4725;48.384;8.984;2023-04-03T12:48:14;7.80;99.90
9371;DHT22;4725;48.384;8.984;2023-04-03T12:50:42;7.70;99.90
9371;DHT22;4725;48.384;8.984;2023-04-03T12:53:13;7.50;99.90
9371;DHT22;4725;48.384;8.984;2023-04-03T12:55:42;7.30;99.90
9371;DHT22;4725;48.384;8.984;2023-04-03T12:58:22;7.10;99.90
9371;DHT22;4725;48.384;8.984;2023-04-03T13:01:00;6.90;99.90
9371;DHT22;4725;48.384;8.984;2023-04-03T13:03:28;6.80;99.90
9371;DHT22;4725;48.384;8.984;2023-04-03T13:05:58;6.50;99.90
9371;DHT22;4725;48.384;8.984;2023-04-03T13:08:26;6.30;99.90
9371;DHT22;4725;48.384;8.984;2023-04-03T13:10:59;6.20;99.90
9371;DHT22;4725;48.384;8.984;2023-04-03T13:13:28;6.10;99.90
9371;DHT22;4725;48.384;8.984;2023-04-03T13:15:56;5.90;99.90
9371;DHT22;4725;48.384;8.984;2023-04-03T13:18:25;5.90;99.90
9371;DHT22;4725;48.384;8.984;2023-04-03T13:20:53;6.00;99.90
9371;DHT22;4725;48.384;8.984;2023-04-03T13:23:23;5.90;99.90
9371;DHT22;4725;48.384;8.984;2023-04-03T13:25:50;5.90;99.90
9371;DHT22;4725;48.384;8.984;2023-04-03T13:28:21;5.90;99.90
9371;DHT22;4725;48.384;8.984;2023-04-03T13:30:59;5.90;99.90
9371;DHT22;4725;48.384;8.984;2023-04-03T13:33:29;6.10;99.90
9371;DHT22;4725;48.384;8.984;2023-04-03T13:35:58;6.10;99.90
9371;DHT22;4725;48.384;8.984;2023-04-03T13:38:28;6.00;99.90
9371;DHT22;4725;48.384;8.984;2023-04-03T13:40:58;5.90;99.90
9371;DHT22;4725;48.384;8.984;2023-04-03T13:43:31;5.90;99.90
9371;DHT22;4725;48.384;8.984;2023-04-03T13:46:02;5.90;99.90
9371;DHT22;4725;48.384;8.984;2023-04-03T13:48:39;5.90;99.90
9371;DHT22;4725;48.384;8.984;2023-04-03T13:51:18;5.90;99.90
9371;DHT22;4725;48.384;8.984;2023-04-03T13:53:47;5.80;99.90
9371;DHT22;4725;48.384;8.984;2023-04-03T13:56:23;5.70;99.90
9371;DHT22;4725;48.384;8.984;2023-04-03T13:59:04;5.60;99.90
9371;DHT22;4725;48.384;8.984;2023-04-03T14:01:42;5.50;99.90
9371;DHT22;4725;48.384;8.984;2023-04-03T14:04:13;5.50;99.90
9371;DHT22;4725;48.384;8.984;2023-04-03T14:06:41;5.50;99.90
9371;DHT22;4725;48.384;8.984;2023-04-03T14:09:08;5.50;99.90
9371;DHT22;4725;48.384;8.984;2023-04-03T14:11:35;5.60;99.90
9371;DHT22;4725;48.384;8.984;2023-04-03T14:14:09;5.80;99.90
9371;DHT22;4725;48.384;8.984;2023-04-03T14:16:41;5.90;99.90
9371;DHT22;4725;48.384;8.984;2023-04-03T14:19:17;5.80;99.90
9371;DHT22;4725;48.384;8.984;2023-04-03T14:21:44;5.70;99.90
9371;DHT22;4725;48.384;8.984;2023-04-03T14:24:11;5.70;99.90
9371;DHT22;4725;48.384;8.984;2023-04-03T14:26:38;5.80;99.90
9371;DHT22;4725;48.384;8.984;2023-04-03T14:29:06;5.80;99.90
9371;DHT22;4725;48.384;8.984;2023-04-03T14:31:33;5.90;99.90
9371;DHT22;4725;48.384;8.984;2023-04-03T14:34:00;6.00;99.90
9371;DHT22;4725;48.384;8.984;2023-04-03T14:36:28;5.90;99.90
9371;DHT22;4725;48.384;8.984;2023-04-03T14:38:56;5.80;99.90
9371;DHT22;4725;48.384;8.984;2023-04-03T14:41:24;5.70;99.90
9371;DHT22;4725;48.384;8.984;2023-04-03T14:46:24;5.80;99.90
9371;DHT22;4725;48.384;8.984;2023-04-03T14:48:52;6.20;99.90
9371;DHT22;4725;48.384;8.984;2023-04-03T14:51:19;6.40;99.90
9371;DHT22;4725;48.384;8.984;2023-04-03T14:53:46;6.50;99.90
9371;DHT22;4725;48.384;8.984;2023-04-03T14:56:17;7.30;99.90
9371;DHT22;4725;48.384;8.984;2023-04-03T14:58:47;7.60;99.90
9371;DHT22;4725;48.384;8.984;2023-04-03T15:03:45;10.40;97.60
9371;DHT22;4725;48.384;8.984;2023-04-03T15:06:13;10.70;96.20
9371;DHT22;4725;48.384;8.984;2023-04-03T15:08:41;9.50;96.70
9371;DHT22;4725;48.384;8.984;2023-04-03T15:11:08;9.50;97.20
9371;DHT22;4725;48.384;8.984;2023-04-03T15:13:36;10.00;95.80
9371;DHT22;4725;48.384;8.984;2023-04-03T15:16:04;9.40;96.80
9371;DHT22;4725;48.384;8.984;2023-04-03T15:18:35;8.30;97.30
9371;DHT22;4725;48.384;8.984;2023-04-03T15:21:05;7.50;98.70
9371;DHT22;4725;48.384;8.984;2023-04-03T15:23:32;7.50;99.00
9371;DHT22;4725;48.384;8.984;2023-04-03T15:25:59;6.90;99.30
9371;DHT22;4725;48.384;8.984;2023-04-03T15:28:28;6.80;99.60
9371;DHT22;4725;48.384;8.984;2023-04-03T15:30:57;6.70;99.60
9371;DHT22;4725;48.384;8.984;2023-04-03T15:33:24;6.70;99.60
9371;DHT22;4725;48.384;8.984;2023-04-03T15:35:51;6.40;99.90
9371;DHT22;4725;48.384;8.984;2023-04-03T15:38:20;6.30;99.90
9371;DHT22;4725;48.384;8.984;2023-04-03T15:40:47;6.30;99.90
9371;DHT22;4725;48.384;8.984;2023-04-03T15:43:15;6.40;99.90
9371;DHT22;4725;48.384;8.984;2023-04-03T15:45:42;6.30;99.90
9371;DHT22;4725;48.384;8.984;2023-04-03T15:48:10;6.00;99.90
9371;DHT22;4725;48.384;8.984;2023-04-03T15:50:37;5.90;99.90
9371;DHT22;4725;48.384;8.984;2023-04-03T15:53:04;5.70;99.90
9371;DHT22;4725;48.384;8.984;2023-04-03T15:55:35;5.60;99.90
9371;DHT22;4725;48.384;8.984;2023-04-03T15:58:02;5.70;99.90
9371;DHT22;4725;48.384;8.984;2023-04-03T16:00:30;5.70;99.90
9371;DHT22;4725;48.384;8.984;2023-04-03T16:02:59;5.80;99.90
9371;DHT22;4725;48.384;8.984;2023-04-03T16:05:29;5.60;99.90
9371;DHT22;4725;48.384;8.984;2023-04-03T16:07:58;5.50;99.90
9371;DHT22;4725;48.384;8.984;2023-04-03T16:10:25;5.50;99.90
9371;DHT22;4725;48.384;8.984;2023-04-03T16:12:54;5.50;99.90
9371;DHT22;4725;48.384;8.984;2023-04-03T16:15:21;5.50;99.90
9371;DHT22;4725;48.384;8.984;2023-04-03T16:17:48;5.80;99.90
9371;DHT22;4725;48.384;8.984;2023-04-03T16:20:15;6.30;99.90
9371;DHT22;4725;48.384;8.984;2023-04-03T16:25:11;8.70;97.40
9371;DHT22;4725;48.384;8.984;2023-04-03T16:27:39;7.80;98.00
9371;DHT22;4725;48.384;8.984;2023-04-03T16:30:08;7.50;98.20
9371;DHT22;4725;48.384;8.984;2023-04-03T16:32:36;7.50;98.40
9371;DHT22;4725;48.384;8.984;2023-04-03T16:35:05;7.20;99.00
9371;DHT22;4725;48.384;8.984;2023-04-03T16:37:32;6.40;99.00
9371;DHT22;4725;48.384;8.984;2023-04-03T16:39:59;6.40;99.50
9371;DHT22;4725;48.384;8.984;2023-04-03T16:44:53;6.00;99.60
9371;DHT22;4725;48.384;8.984;2023-04-03T16:47:22;5.80;99.90
9371;DHT22;4725;48.384;8.984;2023-04-03T16:49:48;5.60;99.90
9371;DHT22;4725;48.384;8.984;2023-04-03T16:52:15;5.60;99.90
9371;DHT22;4725;48.384;8.984;2023-04-03T16:54:42;5.50;99.90
9371;DHT22;4725;48.384;8.984;2023-04-03T16:57:09;5.00;99.90
9371;DHT22;4725;48.384;8.984;2023-04-03T16:59:36;5.00;99.90
9371;DHT22;4725;48.384;8.984;2023-04-03T17:02:03;4.90;99.90
9371;DHT22;4725;48.384;8.984;2023-04-03T17:04:31;4.90;99.90
9371;DHT22;4725;48.384;8.984;2023-04-03T17:06:58;5.00;99.90
9371;DHT22;4725;48.384;8.984;2023-04-03T17:09:25;5.10;99.90
9371;DHT22;4725;48.384;8.984;2023-04-03T17:11:52;5.10;99.90
9371;DHT22;4725;48.384;8.984;2023-04-03T17:14:19;5.20;99.90
9371;DHT22;4725;48.384;8.984;2023-04-03T17:16:46;5.10;99.90
9371;DHT22;4725;48.384;8.984;2023-04-03T17:19:12;5.00;99.90
9371;DHT22;4725;48.384;8.984;2023-04-03T17:21:43;4.90;99.90
9371;DHT22;4725;48.384;8.984;2023-04-03T17:24:13;4.70;99.90
9371;DHT22;4725;48.384;8.984;2023-04-03T17:26:40;4.40;99.90
9371;DHT22;4725;48.384;8.984;2023-04-03T17:29:08;4.40;99.90
9371;DHT22;4725;48.384;8.984;2023-04-03T17:31:35;4.20;99.90
9371;DHT22;4725;48.384;8.984;2023-04-03T17:34:02;4.10;99.90
9371;DHT22;4725;48.384;8.984;2023-04-03T17:36:30;4.00;99.90
9371;DHT22;4725;48.384;8.984;2023-04-03T17:38:59;4.00;99.90
9371;DHT22;4725;48.384;8.984;2023-04-03T17:41:26;4.00;99.90
9371;DHT22;4725;48.384;8.984;2023-04-03T17:43:53;4.00;99.90